createdAt,value
2022-08-28T00:01:06.408Z,99875.31
2022-08-28T00:03:33.777Z,99875.31
2022-08-28T00:06:02.458Z,99879.72
2022-08-28T00:08:30.681Z,99871.19
2022-08-28T00:10:57.934Z,99878.75
2022-08-28T00:13:25.863Z,99881.91
2022-08-28T00:16:01.154Z,99875.84
2022-08-28T00:18:31.322Z,99874.63
2022-08-28T00:20:59.565Z,99878.81
2022-08-28T00:23:30.411Z,99869.41
2022-08-28T00:26:31.976Z,99862.53
2022-08-28T00:29:00.036Z,99873.66
2022-08-28T00:31:27.628Z,99876.41
2022-08-28T00:33:54.893Z,99869.94
2022-08-28T00:36:22.144Z,99876.00
2022-08-28T00:38:50.583Z,99874.78
2022-08-28T00:41:17.840Z,99871.84
2022-08-28T00:44:15.203Z,99868.09
2022-08-28T00:46:46.170Z,99870.16
2022-08-28T00:49:16.466Z,99868.94
2022-08-28T00:52:02.450Z,99863.06
2022-08-28T00:54:33.152Z,99863.69
2022-08-28T00:57:03.935Z,99861.81
2022-08-28T00:59:31.465Z,99863.03
2022-08-28T01:01:59.588Z,99860.75
2022-08-28T01:04:29.709Z,99856.41
2022-08-28T01:06:58.053Z,99857.84
2022-08-28T01:09:28.227Z,99849.66
2022-08-28T01:12:03.109Z,99849.25
2022-08-28T01:14:32.633Z,99861.38
2022-08-28T01:17:00.545Z,99858.56
2022-08-28T01:19:37.413Z,99858.00
2022-08-28T01:22:20.645Z,99861.44
2022-08-28T01:24:49.844Z,99862.09
2022-08-28T01:27:18.801Z,99864.81
2022-08-28T01:29:47.954Z,99860.66
2022-08-28T01:32:41.059Z,99857.31
2022-08-28T01:35:12.993Z,99841.81
2022-08-28T01:37:40.321Z,99843.09
2022-08-28T01:40:10.369Z,99849.38
2022-08-28T01:42:42.801Z,99838.88
2022-08-28T01:45:14.664Z,99846.25
2022-08-28T01:47:44.160Z,99850.66
2022-08-28T01:50:14.923Z,99846.03
2022-08-28T01:52:42.681Z,99848.09
2022-08-28T01:55:11.386Z,99847.69
2022-08-28T01:57:44.647Z,99842.03
2022-08-28T02:00:13.771Z,99839.56
2022-08-28T02:02:41.156Z,99839.56
2022-08-28T02:05:09.996Z,99844.81
2022-08-28T02:07:38.231Z,99837.91
2022-08-28T02:10:07.476Z,99852.81
2022-08-28T02:12:36.015Z,99839.41
2022-08-28T02:15:08.229Z,99838.81
2022-08-28T02:17:35.550Z,99837.97
2022-08-28T02:20:03.751Z,99847.81
2022-08-28T02:22:31.212Z,99837.53
2022-08-28T02:24:58.415Z,99840.25
2022-08-28T02:27:25.721Z,99844.03
2022-08-28T02:29:53.561Z,99843.81
2022-08-28T02:32:20.790Z,99835.66
2022-08-28T02:34:47.979Z,99839.19
2022-08-28T02:37:15.609Z,99846.44
2022-08-28T02:39:42.803Z,99832.25
2022-08-28T02:42:10.005Z,99846.72
2022-08-28T02:44:38.547Z,99843.59
2022-08-28T02:47:05.816Z,99839.19
2022-08-28T02:49:36.159Z,99841.06
2022-08-28T02:52:06.801Z,99842.75
2022-08-28T02:54:34.985Z,99834.38
2022-08-28T02:57:02.446Z,99836.66
2022-08-28T02:59:30.235Z,99839.16
2022-08-28T03:01:57.832Z,99824.44
2022-08-28T03:04:25.013Z,99830.16
2022-08-28T03:06:52.527Z,99832.88
2022-08-28T03:09:19.731Z,99822.59
2022-08-28T03:11:46.953Z,99828.06
2022-08-28T03:14:14.435Z,99826.41
2022-08-28T03:16:41.646Z,99827.44
2022-08-28T03:19:08.875Z,99830.56
2022-08-28T03:21:36.323Z,99830.09
2022-08-28T03:24:04.111Z,99830.72
2022-08-28T03:26:32.020Z,99832.00
2022-08-28T03:28:59.972Z,99829.09
2022-08-28T03:31:30.241Z,99833.91
2022-08-28T03:33:57.595Z,99832.88
2022-08-28T03:36:28.456Z,99840.13
2022-08-28T03:38:58.179Z,99839.22
2022-08-28T03:41:29.238Z,99828.34
2022-08-28T03:43:58.372Z,99832.94
2022-08-28T03:46:26.915Z,99839.03
2022-08-28T03:48:54.407Z,99838.66
2022-08-28T03:51:29.619Z,99837.00
2022-08-28T03:54:02.107Z,99837.88
2022-08-28T03:56:31.395Z,99840.38
2022-08-28T03:59:04.364Z,99829.69
2022-08-28T04:01:33.617Z,99838.28
2022-08-28T04:04:01.008Z,99839.53
2022-08-28T04:06:28.236Z,99840.16
2022-08-28T04:08:59.996Z,99848.09
2022-08-28T04:11:27.893Z,99842.22
2022-08-28T04:13:55.065Z,99843.44
2022-08-28T04:16:22.522Z,99842.00
2022-08-28T04:18:49.987Z,99839.03
2022-08-28T04:21:20.877Z,99846.78
2022-08-28T04:23:48.597Z,99844.19
2022-08-28T04:26:18.877Z,99841.59
2022-08-28T04:28:46.846Z,99841.84
2022-08-28T04:31:15.416Z,99845.09
2022-08-28T04:33:43.273Z,99841.69
2022-08-28T04:36:15.123Z,99845.84
2022-08-28T04:38:44.207Z,99839.13
2022-08-28T04:41:15.165Z,99837.63
2022-08-28T04:43:42.747Z,99845.53
2022-08-28T04:46:12.983Z,99844.81
2022-08-28T04:48:41.949Z,99844.63
2022-08-28T04:51:11.615Z,99850.56
2022-08-28T04:53:39.764Z,99851.09
2022-08-28T04:56:10.495Z,99851.56
2022-08-28T04:58:39.342Z,99852.00
2022-08-28T05:01:10.140Z,99852.19
2022-08-28T05:03:37.505Z,99862.47
2022-08-28T05:06:05.483Z,99849.84
2022-08-28T05:08:33.651Z,99856.03
2022-08-28T05:11:33.240Z,99852.97
2022-08-28T05:14:04.692Z,99864.41
2022-08-28T05:16:34.676Z,99874.31
2022-08-28T05:19:03.163Z,99873.66
2022-08-28T05:21:30.618Z,99877.13
2022-08-28T05:23:59.311Z,99868.06
2022-08-28T05:26:29.725Z,99877.72
2022-08-28T05:28:58.962Z,99877.59
2022-08-28T05:31:27.482Z,99863.41
2022-08-28T05:33:55.243Z,99870.97
2022-08-28T05:36:25.351Z,99866.13
2022-08-28T05:38:57.385Z,99867.84
2022-08-28T05:41:29.266Z,99874.22
2022-08-28T05:44:02.977Z,99875.72
2022-08-28T05:46:31.198Z,99870.03
2022-08-28T05:49:00.490Z,99873.69
2022-08-28T05:51:28.630Z,99875.59
2022-08-28T05:53:57.839Z,99869.78
2022-08-28T05:56:29.963Z,99878.53
2022-08-28T05:59:00.298Z,99887.91
2022-08-28T06:01:30.220Z,99890.28
2022-08-28T06:04:03.313Z,99900.63
2022-08-28T06:06:34.422Z,99902.09
2022-08-28T06:09:06.002Z,99900.44
2022-08-28T06:11:34.052Z,99900.47
2022-08-28T06:14:04.577Z,99895.59
2022-08-28T06:16:32.595Z,99897.44
2022-08-28T06:19:00.757Z,99902.19
2022-08-28T06:21:29.280Z,99902.38
2022-08-28T06:23:56.661Z,99898.50
2022-08-28T06:26:24.187Z,99898.22
2022-08-28T06:28:53.179Z,99897.41
2022-08-28T06:31:24.777Z,99902.91
2022-08-28T06:33:56.120Z,99907.00
2022-08-28T06:36:27.359Z,99907.66
2022-08-28T06:38:58.176Z,99905.41
2022-08-28T06:41:27.261Z,99903.81
2022-08-28T06:43:55.178Z,99908.50
2022-08-28T06:46:23.018Z,99890.94
2022-08-28T06:48:51.488Z,99895.25
2022-08-28T06:51:18.838Z,99895.88
2022-08-28T06:53:46.832Z,99907.22
2022-08-28T06:56:26.552Z,99909.56
2022-08-28T06:58:57.558Z,99907.13
2022-08-28T07:01:29.725Z,99907.94
2022-08-28T07:03:59.885Z,99909.41
2022-08-28T07:06:31.048Z,99915.38
2022-08-28T07:08:58.308Z,99911.56
2022-08-28T07:11:29.102Z,99902.78
2022-08-28T07:13:58.434Z,99913.06
2022-08-28T07:16:29.685Z,99918.38
2022-08-28T07:18:58.397Z,99915.34
2022-08-28T07:21:26.373Z,99920.72
2022-08-28T07:23:55.251Z,99911.75
2022-08-28T07:26:24.877Z,99912.38
2022-08-28T07:28:53.465Z,99911.41
2022-08-28T07:31:38.459Z,99919.31
2022-08-28T07:34:05.690Z,99912.63
2022-08-28T07:36:32.922Z,99908.66
2022-08-28T07:39:00.433Z,99912.25
2022-08-28T07:41:30.689Z,99916.53
2022-08-28T07:44:16.897Z,99909.44
2022-08-28T07:46:45.036Z,99915.06
2022-08-28T07:49:15.615Z,99921.47
2022-08-28T07:51:42.778Z,99923.28
2022-08-28T07:54:15.535Z,99917.91
2022-08-28T07:56:46.402Z,99922.53
2022-08-28T07:59:16.742Z,99920.00
2022-08-28T08:01:47.868Z,99925.03
2022-08-28T08:04:19.329Z,99928.09
2022-08-28T08:06:47.104Z,99920.25
2022-08-28T08:09:17.898Z,99922.34
2022-08-28T08:11:46.140Z,99926.03
2022-08-28T08:14:16.073Z,99925.59
2022-08-28T08:16:45.895Z,99922.97
2022-08-28T08:19:16.475Z,99923.16
2022-08-28T08:21:46.883Z,99917.88
2022-08-28T08:24:20.641Z,99925.16
2022-08-28T08:26:59.204Z,99930.41
2022-08-28T08:29:31.545Z,99920.53
2022-08-28T08:32:06.163Z,99920.97
2022-08-28T08:34:40.070Z,99919.22
2022-08-28T08:37:07.854Z,99924.09
2022-08-28T08:39:36.492Z,99917.69
2022-08-28T08:42:07.611Z,99917.97
2022-08-28T08:44:42.317Z,99928.47
2022-08-28T08:47:43.602Z,99925.78
2022-08-28T08:50:34.426Z,99930.69
2022-08-28T08:53:19.010Z,99923.91
2022-08-28T08:55:54.443Z,99931.44
2022-08-28T08:58:31.753Z,99925.03
2022-08-28T09:01:29.070Z,99927.78
2022-08-28T09:03:59.571Z,99932.88
2022-08-28T09:06:44.116Z,99931.16
2022-08-28T09:09:20.165Z,99927.09
2022-08-28T09:11:57.374Z,99929.56
2022-08-28T09:14:36.527Z,99931.16
2022-08-28T09:17:06.120Z,99930.69
2022-08-28T09:19:33.806Z,99920.00
2022-08-28T09:22:02.018Z,99920.75
2022-08-28T09:24:35.565Z,99907.56
2022-08-28T09:27:10.021Z,99922.81
2022-08-28T09:29:47.176Z,99911.22
2022-08-28T09:32:24.087Z,99921.78
2022-08-28T09:35:30.051Z,99918.03
2022-08-28T09:38:20.916Z,99919.19
2022-08-28T09:41:07.150Z,99915.56
2022-08-28T09:43:36.727Z,99920.66
2022-08-28T09:46:20.745Z,99922.78
2022-08-28T09:48:52.428Z,99918.88
2022-08-28T09:51:22.831Z,99917.75
2022-08-28T09:53:53.654Z,99916.41
2022-08-28T09:56:27.372Z,99902.78
2022-08-28T09:59:15.430Z,99908.50
2022-08-28T10:01:54.984Z,99906.63
2022-08-28T10:05:04.016Z,99907.28
2022-08-28T10:08:01.345Z,99898.97
2022-08-28T10:10:48.085Z,99912.88
2022-08-28T10:13:24.016Z,99906.13
2022-08-28T10:16:14.441Z,99912.63
2022-08-28T10:19:07.025Z,99901.41
2022-08-28T10:21:51.261Z,99911.13
2022-08-28T10:24:41.646Z,99914.72
2022-08-28T10:27:24.842Z,99909.28
2022-08-28T10:30:13.162Z,99900.94
2022-08-28T10:33:18.127Z,99899.19
2022-08-28T10:35:55.632Z,99903.47
2022-08-28T10:38:40.248Z,99906.84
2022-08-28T10:41:34.202Z,99910.78
2022-08-28T10:44:03.824Z,99913.72
2022-08-28T10:46:41.932Z,99903.78
2022-08-28T10:49:31.060Z,99896.56
2022-08-28T10:52:05.154Z,99903.59
2022-08-28T10:54:58.974Z,99887.50
2022-08-28T10:57:35.011Z,99903.47
2022-08-28T11:00:12.866Z,99889.47
2022-08-28T11:02:44.240Z,99894.91
2022-08-28T11:05:12.733Z,99904.63
2022-08-28T11:07:55.172Z,99891.69
2022-08-28T11:10:40.967Z,99906.25
2022-08-28T11:13:10.345Z,99892.31
2022-08-28T11:15:41.814Z,99906.63
2022-08-28T11:18:41.428Z,99897.66
2022-08-28T11:21:20.588Z,99909.25
2022-08-28T11:24:07.582Z,99910.91
2022-08-28T11:26:50.636Z,99910.06
2022-08-28T11:29:55.660Z,99916.16
2022-08-28T11:32:31.067Z,99913.53
2022-08-28T11:35:06.453Z,99915.66
2022-08-28T11:37:40.546Z,99930.41
2022-08-28T11:40:18.343Z,99920.13
2022-08-28T11:42:48.890Z,99930.31
2022-08-28T11:45:47.858Z,99926.84
2022-08-28T11:48:33.794Z,99937.25
2022-08-28T11:51:03.880Z,99938.41
2022-08-28T11:53:49.326Z,99945.91
2022-08-28T11:56:34.999Z,99945.94
2022-08-28T11:59:18.200Z,99949.41
2022-08-28T12:01:45.922Z,99939.91
2022-08-28T12:04:16.692Z,99942.63
2022-08-28T12:06:51.685Z,99937.06
2022-08-28T12:09:39.549Z,99945.84
2022-08-28T12:12:32.678Z,99946.06
2022-08-28T12:15:03.095Z,99935.25
2022-08-28T12:17:46.648Z,99945.28
2022-08-28T12:20:30.074Z,99937.94
2022-08-28T12:22:59.955Z,99945.75
2022-08-28T12:25:36.461Z,99943.63
2022-08-28T12:28:16.844Z,99938.91
2022-08-28T12:30:57.154Z,99944.59
2022-08-28T12:33:42.764Z,99949.25
2022-08-28T12:36:15.674Z,99949.66
2022-08-28T12:38:51.415Z,99960.66
2022-08-28T12:41:20.954Z,99954.66
2022-08-28T12:43:53.288Z,99953.41
2022-08-28T12:46:31.227Z,99946.97
2022-08-28T12:49:04.640Z,99948.91
2022-08-28T12:51:36.242Z,99946.41
2022-08-28T12:54:06.865Z,99946.88
2022-08-28T12:56:39.111Z,99953.69
2022-08-28T12:59:27.573Z,99951.28
2022-08-28T13:02:09.737Z,99940.47
2022-08-28T13:04:53.978Z,99942.81
2022-08-28T13:07:32.255Z,99953.56
2022-08-28T13:10:03.882Z,99945.25
2022-08-28T13:12:55.589Z,99948.50
2022-08-28T13:15:55.319Z,99950.44
2022-08-28T13:18:36.557Z,99953.59
2022-08-28T13:21:25.551Z,99951.06
2022-08-28T13:24:21.290Z,99953.94
2022-08-28T13:26:50.920Z,99960.81
2022-08-28T13:29:22.455Z,99952.78
2022-08-28T13:32:02.092Z,99954.47
2022-08-28T13:34:32.520Z,99959.63
2022-08-28T13:37:07.423Z,99964.91
2022-08-28T13:39:42.467Z,99961.97
2022-08-28T13:42:13.741Z,99968.31
2022-08-28T13:44:50.841Z,99970.09
2022-08-28T13:47:18.069Z,99962.19
2022-08-28T13:49:46.646Z,99954.63
2022-08-28T13:52:14.275Z,99966.44
2022-08-28T13:54:43.741Z,99955.69
2022-08-28T13:57:13.815Z,99954.13
2022-08-28T13:59:41.680Z,99951.59
2022-08-28T14:02:31.239Z,99953.41
2022-08-28T14:04:58.895Z,99957.81
2022-08-28T14:07:26.198Z,99967.34
2022-08-28T14:09:56.380Z,99973.53
2022-08-28T14:12:27.863Z,99982.31
2022-08-28T14:15:00.224Z,99987.16
2022-08-28T14:17:27.645Z,99992.97
2022-08-28T14:19:54.845Z,99987.16
2022-08-28T14:22:22.145Z,99983.00
2022-08-28T14:24:49.535Z,99978.75
2022-08-28T14:27:16.747Z,99971.00
2022-08-28T14:29:43.952Z,99961.41
2022-08-28T14:32:11.669Z,99962.28
2022-08-28T14:34:39.018Z,99972.63
2022-08-28T14:37:06.522Z,99977.19
2022-08-28T14:39:33.776Z,99978.53
2022-08-28T14:42:01.988Z,99974.78
2022-08-28T14:44:29.479Z,99972.06
2022-08-28T14:46:57.319Z,99978.22
2022-08-28T14:49:25.927Z,99971.81
2022-08-28T14:51:54.263Z,99967.19
2022-08-28T14:54:24.205Z,99967.94
2022-08-28T14:56:52.666Z,99965.69
2022-08-28T14:59:26.076Z,99975.22
2022-08-28T15:01:55.667Z,99984.56
2022-08-28T15:04:24.815Z,99977.75
2022-08-28T15:06:58.379Z,99997.97
2022-08-28T15:09:26.795Z,100000.41
2022-08-28T15:11:54.467Z,100005.13
2022-08-28T15:14:21.884Z,99987.03
2022-08-28T15:16:49.469Z,99987.69
2022-08-28T15:19:18.158Z,99979.66
2022-08-28T15:21:52.045Z,99962.19
2022-08-28T15:24:23.507Z,99962.56
2022-08-28T15:26:51.109Z,99956.22
2022-08-28T15:29:18.501Z,99953.22
2022-08-28T15:31:49.078Z,99962.78
2022-08-28T15:34:24.157Z,99967.69
2022-08-28T15:36:55.560Z,99965.75
2022-08-28T15:39:43.795Z,99973.34
2022-08-28T15:42:11.620Z,99959.03
2022-08-28T15:44:39.071Z,99968.81
2022-08-28T15:47:06.955Z,99963.94
2022-08-28T15:49:43.686Z,99967.06
2022-08-28T15:52:16.202Z,99973.53
2022-08-28T15:54:43.409Z,99963.00
2022-08-28T15:57:10.605Z,99973.69
2022-08-28T15:59:49.945Z,99971.94
2022-08-28T16:02:21.249Z,99971.97
2022-08-28T16:04:49.179Z,99972.84
2022-08-28T16:07:17.424Z,99976.31
2022-08-28T16:09:45.390Z,99971.44
2022-08-28T16:12:13.357Z,99967.97
2022-08-28T16:14:40.550Z,99972.75
2022-08-28T16:17:11.058Z,99979.47
2022-08-28T16:19:40.314Z,99983.38
2022-08-28T16:22:09.486Z,99987.94
2022-08-28T16:24:37.284Z,99975.19
2022-08-28T16:27:06.376Z,99982.00
2022-08-28T16:29:37.439Z,99987.63
2022-08-28T16:32:05.631Z,99997.91
2022-08-28T16:34:34.877Z,99989.09
2022-08-28T16:37:04.347Z,100008.66
2022-08-28T16:39:31.792Z,100002.94
2022-08-28T16:41:59.380Z,99996.13
2022-08-28T16:44:26.767Z,99990.63
2022-08-28T16:46:55.246Z,100004.75
2022-08-28T16:49:23.914Z,100005.91
2022-08-28T16:51:51.556Z,100004.97
2022-08-28T16:54:19.149Z,100008.59
2022-08-28T16:56:46.754Z,100005.47
2022-08-28T16:59:24.093Z,100020.25
2022-08-28T17:01:53.008Z,100030.88
2022-08-28T17:04:22.139Z,100029.53
2022-08-28T17:06:49.489Z,100035.41
2022-08-28T17:09:16.972Z,100039.19
2022-08-28T17:11:51.659Z,100041.22
2022-08-28T17:14:20.640Z,100045.28
2022-08-28T17:16:48.480Z,100038.44
2022-08-28T17:19:15.869Z,100033.53
2022-08-28T17:22:02.384Z,100035.44
2022-08-28T17:24:31.098Z,100034.94
2022-08-28T17:27:03.243Z,100033.88
2022-08-28T17:29:34.178Z,100031.81
2022-08-28T17:32:01.976Z,100033.69
2022-08-28T17:34:30.534Z,100026.16
2022-08-28T17:36:58.045Z,100024.31
2022-08-28T17:39:25.815Z,100024.34
2022-08-28T17:41:53.052Z,100028.25
2022-08-28T17:44:20.426Z,100021.59
2022-08-28T17:46:47.955Z,100032.69
2022-08-28T17:49:15.175Z,100039.13
2022-08-28T17:51:44.320Z,100033.00
2022-08-28T17:54:14.666Z,100045.44
2022-08-28T17:56:41.969Z,100046.34
2022-08-28T17:59:10.437Z,100048.50
2022-08-28T18:01:38.534Z,100057.44
2022-08-28T18:04:06.030Z,100057.91
2022-08-28T18:06:33.806Z,100055.69
2022-08-28T18:09:01.666Z,100054.31
2022-08-28T18:11:29.060Z,100048.16
2022-08-28T18:13:56.297Z,100038.44
2022-08-28T18:16:27.611Z,100046.97
2022-08-28T18:18:57.772Z,100055.41
2022-08-28T18:21:25.451Z,100057.06
2022-08-28T18:23:52.790Z,100052.59
2022-08-28T18:26:20.276Z,100063.00
2022-08-28T18:28:48.302Z,100055.88
2022-08-28T18:31:16.536Z,100059.31
2022-08-28T18:33:50.000Z,100056.38
2022-08-28T18:36:17.405Z,100063.97
2022-08-28T18:38:44.995Z,100064.47
2022-08-28T18:41:12.308Z,100071.41
2022-08-28T18:43:39.729Z,100069.09
2022-08-28T18:46:09.270Z,100072.63
2022-08-28T18:48:37.894Z,100069.28
2022-08-28T18:51:07.854Z,100078.78
2022-08-28T18:53:36.077Z,100068.44
2022-08-28T18:56:04.507Z,100072.25
2022-08-28T18:58:32.225Z,100066.97
2022-08-28T19:01:02.267Z,100066.50
2022-08-28T19:03:30.258Z,100071.75
2022-08-28T19:05:57.651Z,100069.78
2022-08-28T19:08:25.924Z,100073.09
2022-08-28T19:10:54.182Z,100074.13
2022-08-28T19:13:21.868Z,100073.19
2022-08-28T19:15:53.035Z,100070.88
2022-08-28T19:18:21.003Z,100075.72
2022-08-28T19:20:48.247Z,100076.44
2022-08-28T19:23:17.850Z,100080.09
2022-08-28T19:25:46.096Z,100076.34
2022-08-28T19:28:14.022Z,100079.34
2022-08-28T19:30:42.249Z,100075.78
2022-08-28T19:33:12.601Z,100082.69
2022-08-28T19:35:39.826Z,100083.56
2022-08-28T19:38:07.355Z,100083.06
2022-08-28T19:40:34.760Z,100087.13
2022-08-28T19:43:01.988Z,100086.50
2022-08-28T19:45:29.753Z,100083.38
2022-08-28T19:47:57.644Z,100091.97
2022-08-28T19:50:24.851Z,100095.41
2022-08-28T19:52:52.298Z,100092.75
2022-08-28T19:55:24.075Z,100089.00
2022-08-28T19:57:51.510Z,100102.66
2022-08-28T20:00:22.386Z,100094.19
2022-08-28T20:02:52.418Z,100092.56
2022-08-28T20:05:20.665Z,100087.56
2022-08-28T20:07:48.487Z,100091.53
2022-08-28T20:10:16.294Z,100093.69
2022-08-28T20:12:48.807Z,100108.16
2022-08-28T20:15:18.892Z,100092.22
2022-08-28T20:17:49.770Z,100105.66
2022-08-28T20:20:24.563Z,100103.59
2022-08-28T20:22:54.386Z,100111.13
2022-08-28T20:25:21.980Z,100100.22
2022-08-28T20:27:49.209Z,100103.13
2022-08-28T20:30:17.588Z,100102.94
2022-08-28T20:32:44.800Z,100095.81
2022-08-28T20:35:13.376Z,100101.69
2022-08-28T20:37:45.393Z,100102.72
2022-08-28T20:40:19.285Z,100099.81
2022-08-28T20:42:48.656Z,100108.03
2022-08-28T20:45:21.375Z,100099.22
2022-08-28T20:47:51.993Z,100092.06
2022-08-28T20:50:19.755Z,100088.50
2022-08-28T20:52:47.091Z,100099.00
2022-08-28T20:55:14.964Z,100087.91
2022-08-28T20:57:42.312Z,100100.50
2022-08-28T21:00:11.480Z,100090.19
2022-08-28T21:02:38.931Z,100096.94
2022-08-28T21:05:06.799Z,100091.88
2022-08-28T21:07:35.281Z,100078.22
2022-08-28T21:10:07.049Z,100083.44
2022-08-28T21:12:37.125Z,100093.50
2022-08-28T21:15:06.824Z,100086.19
2022-08-28T21:17:34.541Z,100080.31
2022-08-28T21:20:09.370Z,100081.97
2022-08-28T21:22:39.101Z,100074.91
2022-08-28T21:25:08.295Z,100093.78
2022-08-28T21:27:36.317Z,100086.63
2022-08-28T21:30:06.037Z,100088.13
2022-08-28T21:32:34.192Z,100085.16
2022-08-28T21:35:02.679Z,100097.97
2022-08-28T21:37:31.377Z,100099.66
2022-08-28T21:39:59.685Z,100096.53
2022-08-28T21:42:27.927Z,100097.75
2022-08-28T21:44:55.567Z,100098.19
2022-08-28T21:47:24.381Z,100109.31
2022-08-28T21:49:54.274Z,100109.97
2022-08-28T21:52:23.678Z,100112.25
2022-08-28T21:55:04.894Z,100112.91
2022-08-28T21:57:32.628Z,100111.63
2022-08-28T21:59:59.984Z,100108.69
2022-08-28T22:02:27.673Z,100122.94
2022-08-28T22:04:55.168Z,100120.00
2022-08-28T22:07:22.717Z,100119.81
2022-08-28T22:09:50.820Z,100143.09
2022-08-28T22:12:18.736Z,100149.38
2022-08-28T22:14:46.185Z,100165.16
2022-08-28T22:17:15.139Z,100169.94
2022-08-28T22:19:42.906Z,100174.13
2022-08-28T22:22:32.321Z,100173.09
2022-08-28T22:25:00.074Z,100166.59
2022-08-28T22:27:27.647Z,100171.66
2022-08-28T22:29:55.648Z,100165.34
2022-08-28T22:32:26.971Z,100161.16
2022-08-28T22:34:54.847Z,100152.75
2022-08-28T22:37:23.287Z,100156.53
2022-08-28T22:39:50.858Z,100155.94
2022-08-28T22:42:18.101Z,100153.59
2022-08-28T22:44:45.306Z,100155.91
2022-08-28T22:47:12.792Z,100165.16
2022-08-28T22:49:39.975Z,100161.38
2022-08-28T22:52:10.437Z,100165.16
2022-08-28T22:54:38.722Z,100171.66
2022-08-28T22:57:06.069Z,100169.13
2022-08-28T22:59:34.432Z,100173.34
2022-08-28T23:02:03.669Z,100169.13
2022-08-28T23:04:31.201Z,100159.44
2022-08-28T23:06:58.494Z,100161.06
2022-08-28T23:09:26.418Z,100156.66
2022-08-28T23:11:53.643Z,100155.63
2022-08-28T23:14:20.856Z,100156.03
2022-08-28T23:16:49.154Z,100149.97
2022-08-28T23:19:16.984Z,100157.75
2022-08-28T23:21:44.562Z,100151.03
2022-08-28T23:24:14.322Z,100158.41
2022-08-28T23:26:42.428Z,100170.34
2022-08-28T23:29:10.814Z,100176.84
2022-08-28T23:31:39.171Z,100180.06
2022-08-28T23:34:06.796Z,100183.22
2022-08-28T23:36:35.715Z,100195.16
2022-08-28T23:39:04.529Z,100191.31
2022-08-28T23:41:32.936Z,100186.75
2022-08-28T23:44:01.682Z,100179.41
2022-08-28T23:46:32.247Z,100182.97
2022-08-28T23:49:00.234Z,100181.94
2022-08-28T23:51:27.676Z,100177.91
2022-08-28T23:53:55.522Z,100181.03
2022-08-28T23:56:23.297Z,100187.94
2022-08-28T23:58:55.545Z,100178.50
